createdAt,value
2018-05-18T00:00:52.632Z,95058.81
2018-05-18T00:03:19.269Z,95048.33
2018-05-18T00:05:45.914Z,95051.48
2018-05-18T00:08:12.596Z,95051.16
2018-05-18T00:10:39.237Z,95055.06
2018-05-18T00:13:05.900Z,95055.57
2018-05-18T00:15:32.601Z,95052.54
2018-05-18T00:17:59.201Z,95057.34
2018-05-18T00:20:28.796Z,95059.11
2018-05-18T00:22:58.629Z,95049.05
2018-05-18T00:25:25.272Z,95054.22
2018-05-18T00:27:56.349Z,95059.40
2018-05-18T00:30:21.450Z,95067.14
2018-05-18T00:32:48.135Z,95064.11
2018-05-18T00:35:14.813Z,95063.56
2018-05-18T00:37:41.546Z,95067.14
2018-05-18T00:40:11.350Z,95061.84
2018-05-18T00:42:40.919Z,95065.00
2018-05-18T00:45:07.563Z,95061.72
2018-05-18T00:47:34.209Z,95054.53
2018-05-18T00:50:00.843Z,95055.16
2018-05-18T00:52:28.971Z,95051.12
2018-05-18T00:54:54.141Z,95051.91
2018-05-18T00:57:22.854Z,95056.68
2018-05-18T00:59:47.460Z,95049.98
2018-05-18T01:02:14.162Z,95051.78
2018-05-18T01:04:40.800Z,95057.72
2018-05-18T01:07:07.432Z,95052.71
2018-05-18T01:09:34.078Z,95051.32
2018-05-18T01:12:00.712Z,95043.76
2018-05-18T01:14:30.308Z,95041.39
2018-05-18T01:16:59.963Z,95046.06
2018-05-18T01:19:28.008Z,95057.27
2018-05-18T01:21:56.098Z,95051.38
2018-05-18T01:24:22.783Z,95049.09
2018-05-18T01:26:49.418Z,95055.66
2018-05-18T01:29:16.138Z,95058.44
2018-05-18T01:31:50.840Z,95062.00
2018-05-18T01:34:17.438Z,95062.48
2018-05-18T01:36:45.448Z,95060.11
2018-05-18T01:39:10.761Z,95063.40
2018-05-18T01:41:37.411Z,95067.94
2018-05-18T01:44:04.044Z,95070.72
2018-05-18T01:46:30.696Z,95074.41
2018-05-18T01:48:58.762Z,95072.27
2018-05-18T01:51:24.005Z,95070.50
2018-05-18T01:53:51.893Z,95072.77
2018-05-18T01:56:17.274Z,95066.84
2018-05-18T01:58:46.894Z,95073.91
2018-05-18T02:01:13.526Z,95071.55
2018-05-18T02:03:41.789Z,95078.70
2018-05-18T02:06:10.980Z,95073.82
2018-05-18T02:08:39.262Z,95077.57
2018-05-18T02:11:05.944Z,95077.95
2018-05-18T02:13:35.780Z,95070.79
2018-05-18T02:16:02.436Z,95061.23
2018-05-18T02:18:29.115Z,95069.86
2018-05-18T02:20:55.746Z,95074.45
2018-05-18T02:23:22.432Z,95078.66
2018-05-18T02:25:51.534Z,95065.31
2018-05-18T02:28:18.217Z,95069.98
2018-05-18T02:30:44.857Z,95067.33
2018-05-18T02:33:13.537Z,95065.41
2018-05-18T02:35:41.533Z,95068.25
2018-05-18T02:38:09.042Z,95069.92
2018-05-18T02:40:38.766Z,95072.16
2018-05-18T02:43:08.834Z,95064.59
2018-05-18T02:45:38.222Z,95057.81
2018-05-18T02:48:04.930Z,95058.19
2018-05-18T02:50:32.935Z,95059.86
2018-05-18T02:52:58.228Z,95063.11
2018-05-18T02:55:26.692Z,95069.20
2018-05-18T02:57:51.539Z,95064.28
2018-05-18T03:00:18.257Z,95072.48
2018-05-18T03:02:48.524Z,95069.23
2018-05-18T03:05:19.411Z,95072.83
2018-05-18T03:07:53.099Z,95069.36
2018-05-18T03:10:22.671Z,95061.41
2018-05-18T03:12:50.664Z,95068.77
2018-05-18T03:15:15.992Z,95071.31
2018-05-18T03:17:42.616Z,95070.00
2018-05-18T03:20:09.263Z,95080.91
2018-05-18T03:22:37.750Z,95076.02
2018-05-18T03:25:05.772Z,95083.64
2018-05-18T03:27:33.189Z,95076.20
2018-05-18T03:29:57.713Z,95085.73
2018-05-18T03:32:24.358Z,95088.62
2018-05-18T03:34:51.057Z,95094.50
2018-05-18T03:37:21.909Z,95095.19
2018-05-18T03:39:48.753Z,95096.53
2018-05-18T03:42:16.239Z,95103.39
2018-05-18T03:44:42.872Z,95101.24
2018-05-18T03:47:14.851Z,95103.13
2018-05-18T03:49:41.163Z,95106.77
2018-05-18T03:52:07.839Z,95105.69
2018-05-18T03:54:34.474Z,95100.39
2018-05-18T03:57:03.486Z,95103.55
2018-05-18T03:59:32.229Z,95101.50
2018-05-18T04:01:58.914Z,95111.12
2018-05-18T04:04:25.591Z,95109.38
2018-05-18T04:06:55.433Z,95111.79
2018-05-18T04:09:22.071Z,95101.22
2018-05-18T04:11:48.770Z,95107.50
2018-05-18T04:14:15.406Z,95108.44
2018-05-18T04:16:43.405Z,95114.87
2018-05-18T04:19:10.095Z,95109.03
2018-05-18T04:21:37.705Z,95108.73
2018-05-18T04:24:04.353Z,95110.04
2018-05-18T04:26:31.051Z,95105.31
2018-05-18T04:28:59.087Z,95096.86
2018-05-18T04:31:28.459Z,95108.47
2018-05-18T04:33:53.650Z,95113.44
2018-05-18T04:36:20.352Z,95116.34
2018-05-18T04:38:48.031Z,95120.34
2018-05-18T04:41:13.621Z,95119.00
2018-05-18T04:43:43.087Z,95115.59
2018-05-18T04:46:11.034Z,95116.05
2018-05-18T04:48:39.120Z,95112.50
2018-05-18T04:51:05.822Z,95111.59
2018-05-18T04:53:32.446Z,95113.98
2018-05-18T04:56:02.367Z,95106.83
2018-05-18T04:58:29.043Z,95109.13
2018-05-18T05:01:06.965Z,95121.22
2018-05-18T05:03:34.551Z,95122.35
2018-05-18T05:06:07.514Z,95121.95
2018-05-18T05:08:36.461Z,95119.28
2018-05-18T05:11:05.975Z,95118.94
2018-05-18T05:13:36.797Z,95127.05
2018-05-18T05:16:02.368Z,95125.22
2018-05-18T05:18:29.096Z,95126.50
2018-05-18T05:20:55.736Z,95125.81
2018-05-18T05:23:22.376Z,95131.32
2018-05-18T05:25:49.024Z,95130.94
2018-05-18T05:28:15.712Z,95125.27
2018-05-18T05:30:42.313Z,95128.55
2018-05-18T05:33:08.949Z,95124.56
2018-05-18T05:35:35.598Z,95119.45
2018-05-18T05:38:04.959Z,95125.86
2018-05-18T05:40:35.382Z,95119.17
2018-05-18T05:43:02.351Z,95118.67
2018-05-18T05:45:27.198Z,95118.27
2018-05-18T05:47:53.826Z,95117.09
2018-05-18T05:50:20.499Z,95121.96
2018-05-18T05:52:47.127Z,95121.28
2018-05-18T05:55:20.172Z,95120.36
2018-05-18T05:57:46.811Z,95119.00
2018-05-18T06:00:13.476Z,95117.52
2018-05-18T06:02:40.134Z,95119.45
2018-05-18T06:05:11.447Z,95112.09
2018-05-18T06:07:33.414Z,95109.09
2018-05-18T06:10:00.052Z,95115.66
2018-05-18T06:12:26.707Z,95116.53
2018-05-18T06:14:53.362Z,95123.53
2018-05-18T06:17:20.021Z,95116.96
2018-05-18T06:19:48.675Z,95122.87
2018-05-18T06:22:15.335Z,95111.21
2018-05-18T06:24:41.978Z,95106.42
2018-05-18T06:27:08.619Z,95108.17
2018-05-18T06:29:38.165Z,95098.72
2018-05-18T06:32:04.810Z,95106.65
2018-05-18T06:34:34.167Z,95103.70
2018-05-18T06:37:03.906Z,95101.03
2018-05-18T06:39:32.508Z,95090.98
2018-05-18T06:41:59.169Z,95099.99
2018-05-18T06:44:25.916Z,95097.39
2018-05-18T06:46:54.713Z,95097.98
2018-05-18T06:49:22.732Z,95096.48
2018-05-18T06:51:50.047Z,95094.63
2018-05-18T06:54:18.040Z,95098.09
2018-05-18T06:56:44.455Z,95089.58
2018-05-18T06:59:11.063Z,95096.93
2018-05-18T07:01:37.765Z,95093.78
2018-05-18T07:04:04.638Z,95089.39
2018-05-18T07:06:31.207Z,95088.70
2018-05-18T07:08:57.901Z,95082.42
2018-05-18T07:11:24.579Z,95077.72
2018-05-18T07:13:51.210Z,95085.27
2018-05-18T07:16:17.858Z,95084.86
2018-05-18T07:18:44.497Z,95085.97
2018-05-18T07:21:11.145Z,95087.48
2018-05-18T07:23:37.794Z,95082.78
2018-05-18T07:26:04.471Z,95081.08
2018-05-18T07:28:31.167Z,95077.16
2018-05-18T07:30:57.775Z,95071.22
2018-05-18T07:33:24.421Z,95071.50
2018-05-18T07:35:51.078Z,95076.02
2018-05-18T07:38:17.741Z,95072.48
2018-05-18T07:40:44.345Z,95076.92
2018-05-18T07:43:10.996Z,95077.39
2018-05-18T07:45:37.650Z,95080.60
2018-05-18T07:48:04.288Z,95083.11
2018-05-18T07:50:30.941Z,95092.17
2018-05-18T07:52:57.582Z,95086.17
2018-05-18T07:55:24.340Z,95094.25
2018-05-18T07:57:56.538Z,95088.30
2018-05-18T08:00:23.220Z,95091.45
2018-05-18T08:02:49.912Z,95087.78
2018-05-18T08:05:16.546Z,95078.05
2018-05-18T08:07:43.274Z,95083.25
2018-05-18T08:10:09.884Z,95080.52
2018-05-18T08:12:36.539Z,95077.98
2018-05-18T08:15:03.253Z,95074.02
2018-05-18T08:17:29.998Z,95077.02
2018-05-18T08:19:56.686Z,95074.36
2018-05-18T08:22:23.326Z,95077.97
2018-05-18T08:24:49.977Z,95074.50
2018-05-18T08:27:16.639Z,95073.59
2018-05-18T08:29:43.283Z,95076.22
2018-05-18T08:32:09.977Z,95079.31
2018-05-18T08:34:36.624Z,95076.20
2018-05-18T08:37:09.730Z,95075.78
2018-05-18T08:39:36.386Z,95072.25
2018-05-18T08:42:03.124Z,95071.39
2018-05-18T08:44:29.824Z,95073.05
2018-05-18T08:46:56.384Z,95073.91
2018-05-18T08:49:23.040Z,95067.65
2018-05-18T08:51:49.707Z,95066.86
2018-05-18T08:54:16.447Z,95068.12
2018-05-18T08:56:43.146Z,95069.48
2018-05-18T08:59:09.830Z,95065.69
2018-05-18T09:01:36.546Z,95061.22
2018-05-18T09:04:03.179Z,95065.15
2018-05-18T09:06:29.828Z,95062.23
2018-05-18T09:08:56.559Z,95059.28
2018-05-18T09:11:23.114Z,95060.27
2018-05-18T09:13:49.757Z,95060.08
2018-05-18T09:16:16.407Z,95056.62
2018-05-18T09:18:43.174Z,95053.83
2018-05-18T09:21:09.981Z,95056.05
2018-05-18T09:23:36.630Z,95051.02
2018-05-18T09:26:03.261Z,95056.97
2018-05-18T09:28:29.995Z,95051.45
2018-05-18T09:30:56.677Z,95055.17
2018-05-18T09:33:23.373Z,95051.09
2018-05-18T09:35:50.001Z,95056.41
2018-05-18T09:38:16.635Z,95051.23
2018-05-18T09:40:43.320Z,95059.91
2018-05-18T09:43:09.953Z,95058.20
2018-05-18T09:45:36.597Z,95060.20
2018-05-18T09:48:03.282Z,95048.50
2018-05-18T09:50:30.096Z,95048.95
2018-05-18T09:52:56.701Z,95046.17
2018-05-18T09:55:23.553Z,95046.69
2018-05-18T09:57:50.046Z,95041.88
2018-05-18T10:00:16.702Z,95047.89
2018-05-18T10:02:43.400Z,95043.95
2018-05-18T10:05:10.046Z,95044.02
2018-05-18T10:07:36.745Z,95037.40
2018-05-18T10:10:03.389Z,95025.69
2018-05-18T10:12:30.175Z,95028.04
2018-05-18T10:14:56.647Z,95032.27
2018-05-18T10:17:23.320Z,95020.82
2018-05-18T10:19:49.968Z,95021.28
2018-05-18T10:22:16.655Z,95022.30
2018-05-18T10:24:43.325Z,95012.84
2018-05-18T10:27:09.984Z,95012.46
2018-05-18T10:29:36.630Z,95004.16
2018-05-18T10:32:04.380Z,95010.70
2018-05-18T10:34:31.065Z,95005.85
2018-05-18T10:36:57.705Z,95002.86
2018-05-18T10:39:24.408Z,95004.86
2018-05-18T10:41:51.099Z,94997.20
2018-05-18T10:44:17.739Z,94984.56
2018-05-18T10:46:44.380Z,94998.66
2018-05-18T10:49:11.056Z,95001.81
2018-05-18T10:51:37.700Z,94991.41
2018-05-18T10:54:04.434Z,94989.06
2018-05-18T10:56:31.137Z,94985.84
2018-05-18T10:58:57.794Z,94983.11
2018-05-18T11:01:24.447Z,94978.09
2018-05-18T11:03:51.175Z,94971.31
2018-05-18T11:06:17.871Z,94968.81
2018-05-18T11:08:44.514Z,94964.43
2018-05-18T11:11:11.210Z,94964.00
2018-05-18T11:13:37.850Z,94964.20
2018-05-18T11:16:04.538Z,94976.16
2018-05-18T11:18:31.192Z,94976.64
2018-05-18T11:20:57.827Z,94976.03
2018-05-18T11:23:24.537Z,94974.06
2018-05-18T11:25:51.377Z,94972.09
2018-05-18T11:28:17.996Z,94968.29
2018-05-18T11:30:44.682Z,94959.05
2018-05-18T11:33:11.552Z,94959.30
2018-05-18T11:35:38.287Z,94952.17
2018-05-18T11:38:04.962Z,94953.07
2018-05-18T11:40:32.887Z,94955.27
2018-05-18T11:42:58.226Z,94951.10
2018-05-18T11:45:24.861Z,94945.55
2018-05-18T11:47:51.499Z,94943.91
2018-05-18T11:50:18.210Z,94944.29
2018-05-18T11:52:44.851Z,94941.88
2018-05-18T11:55:11.551Z,94943.97
2018-05-18T11:57:38.198Z,94934.58
2018-05-18T12:00:04.836Z,94930.98
2018-05-18T12:02:31.521Z,94932.23
2018-05-18T12:05:01.123Z,94940.70
2018-05-18T12:07:27.814Z,94930.75
2018-05-18T12:09:54.423Z,94924.84
2018-05-18T12:12:21.073Z,94920.70
2018-05-18T12:14:47.899Z,94914.80
2018-05-18T12:17:17.868Z,94899.81
2018-05-18T12:19:44.619Z,94917.63
2018-05-18T12:22:11.266Z,94912.92
2018-05-18T12:24:37.909Z,94913.19
2018-05-18T12:27:04.553Z,94906.97
2018-05-18T12:29:31.235Z,94914.95
2018-05-18T12:31:57.871Z,94905.90
2018-05-18T12:34:24.518Z,94902.11
2018-05-18T12:36:51.190Z,94895.08
2018-05-18T12:39:17.823Z,94899.67
2018-05-18T12:41:44.579Z,94899.22
2018-05-18T12:44:11.250Z,94888.52
2018-05-18T12:46:37.934Z,94889.82
2018-05-18T12:49:04.546Z,94895.97
2018-05-18T12:51:31.357Z,94887.89
2018-05-18T12:53:57.972Z,94885.77
2018-05-18T12:56:24.698Z,94882.72
2018-05-18T12:58:51.297Z,94876.45
2018-05-18T13:01:17.940Z,94882.88
2018-05-18T13:03:44.581Z,94878.48
2018-05-18T13:06:11.262Z,94881.16
2018-05-18T13:08:37.953Z,94881.80
2018-05-18T13:11:04.589Z,94873.33
2018-05-18T13:13:31.226Z,94870.34
2018-05-18T13:15:57.902Z,94876.07
2018-05-18T13:18:24.520Z,94865.38
2018-05-18T13:20:51.308Z,94871.91
2018-05-18T13:23:17.909Z,94872.38
2018-05-18T13:25:44.644Z,94870.73
2018-05-18T13:28:11.293Z,94849.47
2018-05-18T13:30:38.052Z,94857.30
2018-05-18T13:33:04.674Z,94862.63
2018-05-18T13:35:31.310Z,94857.59
2018-05-18T13:37:58.015Z,94859.40
2018-05-18T13:40:24.646Z,94856.95
2018-05-18T13:42:51.353Z,94860.88
2018-05-18T13:45:18.052Z,94856.45
2018-05-18T13:47:44.691Z,94855.32
2018-05-18T13:50:11.346Z,94849.95
2018-05-18T13:52:38.067Z,94853.52
2018-05-18T13:55:04.736Z,94849.19
2018-05-18T13:57:31.383Z,94851.68
2018-05-18T13:59:58.049Z,94853.34
2018-05-18T14:02:24.719Z,94854.31
2018-05-18T14:04:51.362Z,94852.47
2018-05-18T14:07:17.995Z,94846.31
2018-05-18T14:09:44.676Z,94852.61
2018-05-18T14:12:11.326Z,94846.36
2018-05-18T14:14:38.011Z,94841.14
2018-05-18T14:17:04.668Z,94847.87
2018-05-18T14:19:31.311Z,94846.39
2018-05-18T14:21:57.956Z,94845.72
2018-05-18T14:24:24.642Z,94849.13
2018-05-18T14:26:51.330Z,94849.84
2018-05-18T14:29:20.881Z,94846.34
2018-05-18T14:31:47.540Z,94843.61
2018-05-18T14:34:14.150Z,94839.77
2018-05-18T14:36:40.822Z,94835.52
2018-05-18T14:39:07.504Z,94833.87
2018-05-18T14:41:34.154Z,94837.39
2018-05-18T14:44:00.891Z,94841.80
2018-05-18T14:46:27.490Z,94830.77
2018-05-18T14:48:54.168Z,94839.42
2018-05-18T14:51:20.773Z,94832.01
2018-05-18T14:53:47.471Z,94830.70
2018-05-18T14:56:14.119Z,94831.34
2018-05-18T14:58:40.790Z,94831.05
2018-05-18T15:01:07.508Z,94825.98
2018-05-18T15:03:34.235Z,94827.98
2018-05-18T15:06:00.848Z,94822.20
2018-05-18T15:08:27.483Z,94825.06
2018-05-18T15:10:54.174Z,94825.10
2018-05-18T15:13:20.796Z,94827.52
2018-05-18T15:15:47.480Z,94821.81
2018-05-18T15:18:14.121Z,94824.06
2018-05-18T15:20:40.805Z,94823.50
2018-05-18T15:23:07.469Z,94826.89
2018-05-18T15:25:34.137Z,94829.98
2018-05-18T15:28:00.771Z,94825.20
2018-05-18T15:30:27.427Z,94822.56
2018-05-18T15:32:54.078Z,94820.64
2018-05-18T15:35:20.751Z,94819.38
2018-05-18T15:37:47.448Z,94821.94
2018-05-18T15:40:14.092Z,94818.71
2018-05-18T15:42:40.799Z,94821.33
2018-05-18T15:45:07.412Z,94816.72
2018-05-18T15:47:34.101Z,94818.37
2018-05-18T15:50:00.777Z,94816.91
2018-05-18T15:52:27.463Z,94819.17
2018-05-18T15:54:54.159Z,94817.58
2018-05-18T15:57:20.780Z,94823.20
2018-05-18T15:59:47.405Z,94821.26
2018-05-18T16:02:14.089Z,94823.29
2018-05-18T16:04:40.818Z,94827.22
2018-05-18T16:07:07.457Z,94820.75
2018-05-18T16:09:34.152Z,94819.05
2018-05-18T16:12:00.831Z,94815.45
2018-05-18T16:14:27.467Z,94815.76
2018-05-18T16:16:54.100Z,94819.09
2018-05-18T16:19:20.851Z,94820.72
2018-05-18T16:21:47.589Z,94819.02
2018-05-18T16:24:14.193Z,94819.84
2018-05-18T16:26:40.905Z,94814.88
2018-05-18T16:29:07.501Z,94807.45
2018-05-18T16:31:34.137Z,94802.67
2018-05-18T16:34:00.827Z,94812.35
2018-05-18T16:36:27.463Z,94818.45
2018-05-18T16:38:54.107Z,94814.88
2018-05-18T16:41:20.746Z,94819.77
2018-05-18T16:43:47.379Z,94824.30
2018-05-18T16:46:14.062Z,94826.73
2018-05-18T16:48:40.697Z,94825.56
2018-05-18T16:51:07.393Z,94826.89
2018-05-18T16:53:34.027Z,94828.73
2018-05-18T16:56:00.661Z,94819.89
2018-05-18T16:58:27.381Z,94828.45
2018-05-18T17:00:53.978Z,94834.30
2018-05-18T17:03:20.625Z,94833.59
2018-05-18T17:05:47.317Z,94839.42
2018-05-18T17:08:14.075Z,94834.91
2018-05-18T17:10:40.710Z,94836.01
2018-05-18T17:13:07.350Z,94830.96
2018-05-18T17:15:33.995Z,94836.75
2018-05-18T17:18:00.671Z,94832.02
2018-05-18T17:20:27.351Z,94833.64
2018-05-18T17:22:53.983Z,94839.25
2018-05-18T17:25:20.662Z,94848.81
2018-05-18T17:27:47.338Z,94845.31
2018-05-18T17:30:14.160Z,94848.55
2018-05-18T17:32:40.789Z,94853.83
2018-05-18T17:35:07.428Z,94861.25
2018-05-18T17:37:34.122Z,94865.92
2018-05-18T17:40:00.762Z,94865.61
2018-05-18T17:42:27.426Z,94860.61
2018-05-18T17:44:54.039Z,94866.18
2018-05-18T17:47:20.675Z,94865.16
2018-05-18T17:49:47.322Z,94868.83
2018-05-18T17:52:13.959Z,94870.81
2018-05-18T17:54:40.604Z,94876.69
2018-05-18T17:57:07.250Z,94876.88
2018-05-18T17:59:33.889Z,94874.73
2018-05-18T18:02:00.533Z,94880.98
2018-05-18T18:04:27.166Z,94875.14
2018-05-18T18:06:53.810Z,94870.50
2018-05-18T18:09:20.527Z,94877.73
2018-05-18T18:11:47.163Z,94877.66
2018-05-18T18:14:13.806Z,94883.56
2018-05-18T18:16:40.448Z,94883.12
2018-05-18T18:19:07.125Z,94884.63
2018-05-18T18:21:33.720Z,94889.03
2018-05-18T18:24:00.361Z,94891.17
2018-05-18T18:26:27.008Z,94894.00
2018-05-18T18:28:53.645Z,94888.98
2018-05-18T18:31:20.286Z,94895.11
2018-05-18T18:33:46.920Z,94885.52
2018-05-18T18:36:13.568Z,94890.06
2018-05-18T18:38:40.195Z,94902.30
2018-05-18T18:41:06.843Z,94899.84
2018-05-18T18:43:33.481Z,94903.58
2018-05-18T18:46:00.134Z,94909.48
2018-05-18T18:48:26.804Z,94903.97
2018-05-18T18:50:53.416Z,94907.77
2018-05-18T18:53:20.057Z,94907.35
2018-05-18T18:55:46.720Z,94907.20
2018-05-18T18:58:13.324Z,94910.58
2018-05-18T19:00:39.963Z,94914.82
2018-05-18T19:03:06.632Z,94920.77
2018-05-18T19:05:33.265Z,94918.18
2018-05-18T19:07:59.927Z,94916.30
2018-05-18T19:10:26.531Z,94916.36
2018-05-18T19:12:53.177Z,94920.88
2018-05-18T19:15:19.824Z,94919.47
2018-05-18T19:17:46.452Z,94923.28
2018-05-18T19:20:13.158Z,94921.51
2018-05-18T19:22:39.726Z,94921.31
2018-05-18T19:25:06.375Z,94924.52
2018-05-18T19:27:33.008Z,94926.01
2018-05-18T19:29:59.642Z,94927.41
2018-05-18T19:32:26.294Z,94923.67
2018-05-18T19:34:53.027Z,94929.76
2018-05-18T19:37:19.677Z,94943.05
2018-05-18T19:39:46.315Z,94935.45
2018-05-18T19:42:12.957Z,94941.66
2018-05-18T19:44:39.638Z,94941.45
2018-05-18T19:47:06.272Z,94932.61
2018-05-18T19:49:32.901Z,94930.58
2018-05-18T19:51:59.549Z,94930.27
2018-05-18T19:54:26.184Z,94927.22
2018-05-18T19:56:52.821Z,94922.66
2018-05-18T19:59:19.461Z,94930.78
2018-05-18T20:01:46.150Z,94929.02
2018-05-18T20:04:12.782Z,94926.78
2018-05-18T20:06:39.428Z,94920.02
2018-05-18T20:09:06.091Z,94926.15
2018-05-18T20:11:32.733Z,94919.83
2018-05-18T20:13:59.369Z,94922.05
2018-05-18T20:16:26.013Z,94920.34
2018-05-18T20:18:52.680Z,94913.39
2018-05-18T20:21:19.293Z,94914.78
2018-05-18T20:23:45.926Z,94918.49
2018-05-18T20:26:12.622Z,94917.74
2018-05-18T20:28:39.267Z,94918.06
2018-05-18T20:31:05.904Z,94922.33
2018-05-18T20:33:32.550Z,94920.15
2018-05-18T20:35:59.185Z,94919.83
2018-05-18T20:38:25.865Z,94923.26
2018-05-18T20:40:52.536Z,94915.98
2018-05-18T20:43:19.183Z,94917.45
2018-05-18T20:45:45.798Z,94923.27
2018-05-18T20:48:12.436Z,94921.87
2018-05-18T20:50:39.079Z,94918.16
2018-05-18T20:53:05.731Z,94924.22
2018-05-18T20:55:32.372Z,94916.19
2018-05-18T20:57:59.018Z,94920.02
2018-05-18T21:00:25.702Z,94913.05
2018-05-18T21:02:52.341Z,94909.86
2018-05-18T21:05:18.981Z,94910.91
2018-05-18T21:07:45.631Z,94915.23
2018-05-18T21:10:12.268Z,94906.53
2018-05-18T21:12:38.903Z,94912.10
2018-05-18T21:15:05.551Z,94915.52
2018-05-18T21:17:32.186Z,94909.95
2018-05-18T21:19:58.831Z,94910.34
2018-05-18T21:22:25.464Z,94917.44
2018-05-18T21:24:52.111Z,94926.42
2018-05-18T21:27:18.756Z,94926.80
2018-05-18T21:29:45.394Z,94929.64
2018-05-18T21:32:12.048Z,94924.98
2018-05-18T21:34:38.683Z,94925.80
2018-05-18T21:37:05.323Z,94926.11
2018-05-18T21:39:31.959Z,94935.53
2018-05-18T21:41:58.599Z,94935.33
2018-05-18T21:44:25.242Z,94935.67
2018-05-18T21:46:51.879Z,94929.38
2018-05-18T21:49:18.524Z,94938.26
2018-05-18T21:51:45.162Z,94946.61
2018-05-18T21:54:11.806Z,94941.48
2018-05-18T21:56:38.496Z,94946.11
2018-05-18T21:59:05.127Z,94943.24
2018-05-18T22:01:31.799Z,94944.14
2018-05-18T22:03:58.428Z,94943.13
2018-05-18T22:06:25.070Z,94945.16
2018-05-18T22:08:51.706Z,94952.48
2018-05-18T22:11:18.428Z,94956.92
2018-05-18T22:13:45.057Z,94960.63
2018-05-18T22:16:11.699Z,94950.28
2018-05-18T22:18:38.341Z,94956.86
2018-05-18T22:21:04.977Z,94954.58
2018-05-18T22:23:31.700Z,94949.06
2018-05-18T22:25:58.303Z,94956.77
2018-05-18T22:28:24.933Z,94955.09
2018-05-18T22:30:51.656Z,94952.48
2018-05-18T22:33:18.245Z,94947.94
2018-05-18T22:35:44.903Z,94948.83
2018-05-18T22:38:11.590Z,94937.95
2018-05-18T22:40:38.233Z,94947.44
2018-05-18T22:43:04.870Z,94943.55
2018-05-18T22:45:31.502Z,94947.61
2018-05-18T22:47:58.142Z,94955.41
2018-05-18T22:50:24.776Z,94952.16
2018-05-18T22:52:51.421Z,94955.47
2018-05-18T22:55:18.059Z,94951.34
2018-05-18T22:57:44.694Z,94947.55
2018-05-18T23:00:11.326Z,94948.19
2018-05-18T23:02:37.969Z,94954.77
2018-05-18T23:05:04.602Z,94956.91
2018-05-18T23:07:31.244Z,94953.64
2018-05-18T23:09:57.875Z,94949.09
2018-05-18T23:12:24.556Z,94944.19
2018-05-18T23:14:51.198Z,94935.61
2018-05-18T23:17:17.873Z,94933.09
2018-05-18T23:19:44.523Z,94930.48
2018-05-18T23:22:11.207Z,94931.00
2018-05-18T23:24:37.840Z,94926.19
2018-05-18T23:27:04.522Z,94923.28
2018-05-18T23:29:31.158Z,94921.52
2018-05-18T23:31:57.831Z,94914.86
2018-05-18T23:34:24.434Z,94917.34
2018-05-18T23:36:51.067Z,94914.79
2018-05-18T23:39:17.761Z,94916.81
2018-05-18T23:41:44.396Z,94926.81
2018-05-18T23:44:11.080Z,94930.14
2018-05-18T23:46:37.723Z,94928.75
2018-05-18T23:49:04.362Z,94924.90
2018-05-18T23:51:30.998Z,94929.53
2018-05-18T23:53:57.674Z,94928.95
2018-05-18T23:56:24.311Z,94921.30
2018-05-18T23:58:51.001Z,94915.62
